Terminal Aerodrome Forecast
Issued by NWS

Home | Current Version | Previous Version | Text Only | Print | Product List | Glossary On
Versions: 1 2 3 4 5 6 7 8 9 10 11 12 13 14 15 16 17 18 19 20
706
FTUS46 KSEW 252320
TAFOLM
TAF
KOLM 252320Z 2600/2624 24008KT P6SM SCT035 BKN050
     FM260200 VRB03KT P6SM SCT050 BKN200
     FM260800 VRB03KT P6SM MIFG SCT080 OVC150
     FM261300 VRB03KT P6SM BKN070 OVC120
     FM261600 18007KT P6SM -RA BKN045 OVC070
     FM262200 18010KT P6SM -RA BKN030 OVC045=

USA.gov is the U.S. government's official web portal to all federal, state and local government web resources and services.